Time;durP1;ratioP1;P1;durP2;ratioP2;P2;SDS_P1;SDS_P2;PMS_P1;PMS_P2;Temp;Humidity;BMP_temperature;BMP_pressure;BME280_temperature;BME280_humidity;BME280_pressure;Samples;Min_cycle;Max_cycle;Signal;HPM_P1;HPM_P2
2021/12/10 00:00:18;;;;;;;79.13;37.33;;;;;;;5.55;74.78;98928.78;3083343;28;20311;-62
2021/12/10 00:01:53;;;;;;;77.40;34.70;;;;;;;5.54;74.90;98932.28;3080497;28;20053;-62
2021/12/10 00:03:29;;;;;;;76.10;36.85;;;;;;;5.58;74.55;98925.25;3082133;28;20055;-62
2021/12/10 00:05:01;;;;;;;73.35;36.22;;;;;;;5.57;74.69;98923.56;3080770;28;20053;-62
2021/12/10 00:06:36;;;;;;;80.70;38.22;;;;;;;5.58;74.53;98933.84;3083969;28;20059;-62
2021/12/10 00:08:09;;;;;;;74.72;35.47;;;;;;;5.56;74.58;98935.66;3087922;28;20042;-62
2021/12/10 00:09:45;;;;;;;85.70;37.67;;;;;;;5.59;74.49;98924.34;3084599;28;20054;-61
2021/12/10 00:11:21;;;;;;;75.72;35.90;;;;;;;5.59;74.49;98916.59;3081561;28;20436;-61
2021/12/10 00:12:54;;;;;;;74.30;36.15;;;;;;;5.60;74.52;98926.03;3083847;28;20606;-61
2021/12/10 00:14:30;;;;;;;76.28;34.95;;;;;;;5.61;74.49;98923.38;3085331;28;20054;-61
2021/12/10 00:16:03;;;;;;;69.78;34.42;;;;;;;5.62;74.51;98919.91;3085334;28;20131;-62
2021/12/10 00:17:35;;;;;;;71.13;34.08;;;;;;;5.11;74.58;98840.97;3083978;28;20055;-61
2021/12/10 00:19:17;;;;;;;80.45;36.17;;;;;;;5.35;74.52;98867.56;3084386;28;20050;-62
2021/12/10 00:20:56;;;;;;;77.80;36.00;;;;;;;5.62;74.44;98921.63;3084394;28;20065;-61
2021/12/10 00:22:37;;;;;;;71.70;34.83;;;;;;;5.63;74.34;98926.75;3089920;28;20493;-61
2021/12/10 00:24:10;;;;;;;70.13;34.42;;;;;;;5.61;74.45;98925.13;3082394;28;20047;-61
2021/12/10 00:25:47;;;;;;;73.70;35.25;;;;;;;5.61;74.42;98928.53;3084766;28;20055;-61
2021/12/10 00:27:27;;;;;;;71.35;33.17;;;;;;;5.63;74.44;98933.66;3083840;28;20177;-62
2021/12/10 00:29:03;;;;;;;70.72;33.85;;;;;;;5.60;74.49;98919.13;3083937;28;20043;-62
2021/12/10 00:30:44;;;;;;;71.55;34.70;;;;;;;5.61;74.23;98897.56;3085490;28;20130;-62
2021/12/10 00:32:28;;;;;;;68.28;33.10;;;;;;;5.62;74.18;98901.84;3082710;28;20172;-62
2021/12/10 00:34:08;;;;;;;74.18;35.40;;;;;;;5.65;74.39;98906.06;3084413;28;20573;-62
2021/12/10 00:35:41;;;;;;;84.75;34.72;;;;;;;5.65;74.34;98896.56;3082888;28;20508;-62
2021/12/10 00:37:15;;;;;;;69.47;34.10;;;;;;;5.68;74.14;98900.75;3088138;28;20531;-62
2021/12/10 00:38:48;;;;;;;72.05;34.75;;;;;;;5.69;74.05;98890.34;3083978;28;20505;-62
2021/12/10 00:40:22;;;;;;;67.60;34.67;;;;;;;5.69;74.13;98872.28;3084258;28;20451;-62
2021/12/10 00:41:56;;;;;;;69.95;34.05;;;;;;;5.73;74.11;98882.47;3083811;28;20142;-62
2021/12/10 00:43:28;;;;;;;74.88;34.67;;;;;;;5.73;73.97;98892.81;3084573;28;20058;-62
2021/12/10 00:45:01;;;;;;;71.00;33.13;;;;;;;5.73;73.93;98885.06;3084537;28;20059;-62
2021/12/10 00:46:35;;;;;;;70.63;34.03;;;;;;;5.75;73.85;98873.78;3082517;28;20508;-62
2021/12/10 00:48:07;;;;;;;68.75;33.97;;;;;;;5.74;73.87;98869.50;3084287;28;20512;-62
2021/12/10 00:49:39;;;;;;;68.18;34.67;;;;;;;5.77;73.87;98878.84;3083871;28;20583;-62
2021/12/10 00:51:14;;;;;;;64.63;33.95;;;;;;;5.80;73.90;98882.19;3083488;28;20052;-62
2021/12/10 00:52:46;;;;;;;70.88;35.42;;;;;;;5.80;73.71;98889.09;3089960;28;20053;-61
2021/12/10 00:54:19;;;;;;;70.55;34.08;;;;;;;5.77;73.81;98887.47;3082966;28;20059;-61
2021/12/10 00:55:51;;;;;;;76.22;35.35;;;;;;;5.71;73.81;98887.72;3084326;28;20058;-61
2021/12/10 00:57:23;;;;;;;70.88;33.58;;;;;;;5.76;73.75;98887.53;3083901;28;20057;-62
2021/12/10 00:58:55;;;;;;;68.65;34.15;;;;;;;5.79;73.76;98877.06;3084941;28;20046;-63
2021/12/10 01:00:30;;;;;;;71.40;34.92;;;;;;;5.79;73.63;98875.31;3085059;28;20062;-63
2021/12/10 01:02:06;;;;;;;68.60;32.63;;;;;;;5.82;73.62;98876.94;3083662;28;20461;-61
2021/12/10 01:03:41;;;;;;;68.35;33.53;;;;;;;5.80;73.76;98861.50;3084286;28;20129;-62
2021/12/10 01:05:14;;;;;;;65.90;33.22;;;;;;;5.78;73.78;98873.66;3082127;28;20058;-62
2021/12/10 01:06:50;;;;;;;65.75;33.78;;;;;;;5.78;73.76;98878.81;3085340;28;20110;-61
2021/12/10 01:08:23;;;;;;;70.22;33.17;;;;;;;5.78;73.71;98881.38;3083737;28;20117;-61
2021/12/10 01:09:57;;;;;;;66.57;33.05;;;;;;;5.77;73.75;98876.28;3083059;28;20447;-61
2021/12/10 01:11:33;;;;;;;71.78;34.13;;;;;;;5.80;73.80;98902.00;3083985;28;20126;-61
2021/12/10 01:13:11;;;;;;;72.85;35.05;;;;;;;5.79;73.65;98864.97;3084649;28;20118;-61
2021/12/10 01:14:59;;;;;;;69.43;32.53;;;;;;;5.77;73.79;98851.31;3084871;28;20097;-61
2021/12/10 01:23:59;;;;;;;70.13;34.08;;;;;;;5.72;74.29;98842.91;3081066;28;20547;-62
2021/12/10 01:25:36;;;;;;;71.97;33.78;;;;;;;5.73;74.15;98848.91;3084308;28;20110;-62
2021/12/10 01:27:14;;;;;;;72.07;33.92;;;;;;;5.73;74.20;98854.91;3082185;28;20121;-61
2021/12/10 01:28:47;;;;;;;72.25;34.33;;;;;;;5.74;74.22;98863.47;3084351;28;20141;-61
2021/12/10 01:30:21;;;;;;;78.47;35.80;;;;;;;5.75;74.21;98831.59;3083321;28;20161;-61
2021/12/10 01:31:53;;;;;;;68.53;33.15;;;;;;;5.77;74.27;98829.78;3081129;28;20047;-61
2021/12/10 01:33:26;;;;;;;78.45;34.60;;;;;;;5.30;74.29;98745.63;3084164;28;20051;-61
2021/12/10 01:34:59;;;;;;;67.18;34.10;;;;;;;5.78;74.40;98818.56;3081814;28;20054;-61
2021/12/10 01:36:30;;;;;;;74.72;33.67;;;;;;;5.76;74.40;98808.28;3083239;28;20118;-61
2021/12/10 01:38:05;;;;;;;72.28;34.10;;;;;;;5.76;74.54;98810.00;3085524;28;20061;-61
2021/12/10 01:39:41;;;;;;;73.30;34.67;;;;;;;5.79;74.52;98810.72;3081552;28;20055;-61
2021/12/10 01:41:17;;;;;;;73.95;35.70;;;;;;;5.62;74.52;98779.59;3083734;28;20520;-62
2021/12/10 01:42:52;;;;;;;76.43;33.83;;;;;;;5.83;74.54;98824.38;3082129;28;20055;-61
2021/12/10 01:44:30;;;;;;;71.05;33.20;;;;;;;5.86;74.55;98834.59;3083821;28;20130;-63
2021/12/10 01:46:09;;;;;;;78.20;35.28;;;;;;;5.83;74.59;98814.88;3084181;28;20435;-63
2021/12/10 01:47:41;;;;;;;75.00;35.30;;;;;;;5.73;74.63;98781.72;3084155;28;20551;-61
2021/12/10 01:49:15;;;;;;;73.30;34.45;;;;;;;5.61;74.61;98749.50;3084754;28;20058;-61
2021/12/10 01:50:48;;;;;;;69.75;33.28;;;;;;;5.87;74.72;98792.34;3081806;28;20184;-61
2021/12/10 01:52:21;;;;;;;83.43;36.08;;;;;;;5.89;74.67;98796.53;3080014;28;20046;-61
2021/12/10 01:53:56;;;;;;;78.10;35.42;;;;;;;5.89;74.77;98775.88;3083099;28;20376;-63
2021/12/10 01:55:29;;;;;;;85.75;35.00;;;;;;;5.91;74.83;98766.28;3083933;28;20386;-61
2021/12/10 01:57:02;;;;;;;84.25;36.70;;;;;;;5.40;74.81;98673.78;3082996;28;20074;-61
2021/12/10 01:58:34;;;;;;;82.07;37.30;;;;;;;5.88;75.11;98758.66;3081296;28;20058;-61
2021/12/10 02:00:11;;;;;;;88.57;36.92;;;;;;;5.93;74.85;98769.69;3083914;28;20057;-61
2021/12/10 02:01:46;;;;;;;91.20;36.50;;;;;;;5.91;74.96;98778.38;3081871;28;20046;-62
2021/12/10 02:03:19;;;;;;;85.43;38.17;;;;;;;5.89;75.10;98755.19;3084086;28;20054;-62
2021/12/10 02:04:53;;;;;;;96.10;38.88;;;;;;;5.90;75.29;98740.53;3081601;28;20485;-62
2021/12/10 02:06:25;;;;;;;88.20;36.63;;;;;;;5.89;75.16;98723.34;3076559;28;20114;-61
2021/12/10 02:07:58;;;;;;;85.45;36.88;;;;;;;5.93;75.34;98745.59;3085084;28;20046;-61
2021/12/10 02:09:30;;;;;;;103.45;39.58;;;;;;;5.90;75.41;98763.78;3081656;28;20089;-61
2021/12/10 02:11:03;;;;;;;101.97;39.92;;;;;;;5.90;75.56;98723.28;3083876;28;20047;-61
2021/12/10 02:12:35;;;;;;;96.82;38.42;;;;;;;5.81;75.85;98707.34;3081371;28;20114;-61
2021/12/10 02:14:07;;;;;;;90.32;38.42;;;;;;;5.84;75.94;98745.94;3083407;28;20083;-62
2021/12/10 02:15:39;;;;;;;106.72;39.58;;;;;;;5.85;75.98;98735.53;3082942;28;20483;-62
2021/12/10 02:17:11;;;;;;;87.93;39.15;;;;;;;5.77;76.41;98713.53;3080404;28;20063;-61
2021/12/10 02:18:43;;;;;;;112.90;41.60;;;;;;;5.74;76.71;98709.34;3083619;28;20443;-62
2021/12/10 02:20:21;;;;;;;102.45;39.50;;;;;;;5.81;76.29;98722.84;3082408;28;20043;-61
2021/12/10 02:21:55;;;;;;;95.47;38.42;;;;;;;5.82;76.34;98724.50;3083615;28;20057;-62
2021/12/10 02:23:27;;;;;;;102.57;38.53;;;;;;;5.82;76.40;98720.16;3083614;28;20074;-62
2021/12/10 02:24:58;;;;;;;102.80;38.22;;;;;;;5.87;76.38;98701.91;3080913;28;20047;-62
2021/12/10 02:26:33;;;;;;;107.63;41.63;;;;;;;5.90;76.24;98712.94;3083846;28;20046;-61
2021/12/10 02:28:07;;;;;;;104.80;40.42;;;;;;;5.92;76.32;98746.47;3080867;28;20126;-61
2021/12/10 02:29:41;;;;;;;97.90;40.42;;;;;;;5.93;76.46;98746.41;3082969;28;20051;-61
2021/12/10 02:31:14;;;;;;;90.68;38.97;;;;;;;5.93;76.21;98718.00;3080649;28;20130;-61
2021/12/10 02:32:46;;;;;;;92.30;39.13;;;;;;;5.91;76.27;98711.19;3083559;28;20051;-61
2021/12/10 02:34:18;;;;;;;85.00;37.30;;;;;;;5.93;76.38;98727.50;3083610;28;20115;-63
2021/12/10 02:35:50;;;;;;;80.35;35.45;;;;;;;5.90;76.33;98688.84;3082915;28;20110;-63
2021/12/10 02:37:24;;;;;;;80.45;36.78;;;;;;;5.59;76.24;98685.00;3086768;28;20053;-63
2021/12/10 02:38:56;;;;;;;73.32;35.88;;;;;;;5.84;76.42;98715.78;3080814;28;20061;-60
2021/12/10 02:40:31;;;;;;;78.47;34.83;;;;;;;5.82;76.41;98707.25;3083041;28;20110;-62
2021/12/10 02:42:03;;;;;;;72.80;33.72;;;;;;;5.83;76.36;98731.38;3083809;28;20500;-61
2021/12/10 02:43:35;;;;;;;76.18;35.17;;;;;;;5.80;76.12;98705.66;3080640;28;20058;-61
2021/12/10 02:45:08;;;;;;;75.82;35.17;;;;;;;5.81;76.13;98722.84;3083340;28;20053;-61
2021/12/10 02:46:41;;;;;;;78.45;35.47;;;;;;;5.82;75.89;98727.91;3080147;28;20477;-61
2021/12/10 02:48:13;;;;;;;79.78;35.10;;;;;;;5.56;76.08;98672.25;3083619;28;20188;-61
2021/12/10 02:49:45;;;;;;;81.80;34.65;;;;;;;5.51;75.94;98658.69;3082852;28;20050;-61
2021/12/10 02:51:18;;;;;;;80.00;36.38;;;;;;;5.86;76.23;98716.56;3080466;28;20524;-61
2021/12/10 02:52:51;;;;;;;86.03;34.33;;;;;;;5.87;76.30;98738.06;3084368;28;20121;-62
2021/12/10 02:54:33;;;;;;;;;;;;;;;5.62;76.42;98754.63;3081616;28;20054;-62
2021/12/10 02:56:04;;;;;;;79.65;33.03;;;;;;;5.68;76.89;98745.78;3083424;28;19933;-62
2021/12/10 02:57:37;;;;;;;89.75;36.25;;;;;;;5.81;76.73;98733.16;3081682;28;20183;-62
2021/12/10 02:59:08;;;;;;;93.22;35.97;;;;;;;5.88;76.51;98739.75;3081911;28;20566;-62
2021/12/10 03:00:45;;;;;;;101.25;37.67;;;;;;;5.95;76.37;98735.19;3083647;28;20046;-62
2021/12/10 03:02:21;;;;;;;92.70;37.72;;;;;;;5.95;76.56;98727.44;3079583;28;20059;-62
2021/12/10 03:03:53;;;;;;;97.95;35.88;;;;;;;5.95;76.79;98746.38;3082952;28;20141;-61
2021/12/10 03:05:25;;;;;;;101.10;39.42;;;;;;;5.98;76.62;98741.06;3080965;28;20105;-61
2021/12/10 03:07:00;;;;;;;112.43;39.63;;;;;;;6.02;76.71;98726.25;3082381;28;20055;-61
2021/12/10 03:08:33;;;;;;;100.00;38.47;;;;;;;5.99;76.90;98753.06;3085491;28;20047;-61
2021/12/10 03:10:09;;;;;;;108.65;40.15;;;;;;;6.01;77.07;98765.94;3081248;28;20436;-61
2021/12/10 03:11:46;;;;;;;103.82;38.33;;;;;;;5.81;77.04;98738.34;3084157;28;20042;-61
2021/12/10 03:13:19;;;;;;;98.10;38.63;;;;;;;6.01;77.21;98779.69;3081622;28;20145;-62
2021/12/10 03:14:54;;;;;;;110.75;39.03;;;;;;;6.01;77.29;98740.09;3082728;28;20051;-62
2021/12/10 03:16:26;;;;;;;103.90;39.33;;;;;;;5.95;77.44;98727.44;3083863;28;20058;-62
2021/12/10 03:18:00;;;;;;;99.38;39.90;;;;;;;5.49;77.62;98652.72;3083639;28;20054;-62
2021/12/10 03:19:32;;;;;;;104.50;37.90;;;;;;;6.05;77.58;98739.06;3082400;28;20069;-62
2021/12/10 03:21:09;;;;;;;112.70;41.58;;;;;;;6.09;77.63;98735.41;3081636;28;20051;-61
2021/12/10 03:22:42;;;;;;;102.72;38.63;;;;;;;6.06;77.60;98715.75;3083913;28;20050;-61
2021/12/10 03:24:18;;;;;;;103.72;38.25;;;;;;;6.11;77.63;98718.94;3081769;28;20496;-62
2021/12/10 03:25:50;;;;;;;95.68;39.45;;;;;;;6.09;77.69;98717.31;3082408;28;20058;-62
2021/12/10 03:27:23;;;;;;;100.25;39.92;;;;;;;6.13;77.64;98755.06;3081949;28;20497;-61
2021/12/10 03:28:55;;;;;;;104.72;39.10;;;;;;;6.14;77.68;98742.06;3082174;28;20429;-62
2021/12/10 03:30:30;;;;;;;98.80;37.75;;;;;;;6.15;77.60;98717.91;3082269;28;20439;-62
2021/12/10 03:32:06;;;;;;;100.93;38.33;;;;;;;6.13;77.75;98730.06;3081420;28;20058;-61
2021/12/10 03:33:41;;;;;;;99.60;37.97;;;;;;;6.17;77.89;98735.09;3082783;28;20379;-62
2021/12/10 03:35:16;;;;;;;90.63;37.17;;;;;;;6.15;78.10;98710.16;3082614;28;20542;-62
2021/12/10 03:36:51;;;;;;;90.00;36.28;;;;;;;5.63;78.08;98631.47;3081742;28;20043;-62
2021/12/10 03:38:25;;;;;;;96.25;38.70;;;;;;;6.21;77.81;98710.78;3077359;28;20039;-62
2021/12/10 03:39:58;;;;;;;91.97;36.25;;;;;;;6.21;77.96;98698.72;3080229;28;20055;-62
2021/12/10 03:41:30;;;;;;;90.90;36.10;;;;;;;6.22;78.01;98704.72;3084990;28;20057;-62
2021/12/10 03:43:03;;;;;;;90.30;38.25;;;;;;;6.24;77.89;98710.63;3084317;28;20054;-62
2021/12/10 03:44:35;;;;;;;92.37;36.27;;;;;;;6.26;78.01;98693.31;3086462;28;20157;-62
2021/12/10 03:46:08;;;;;;;94.53;37.00;;;;;;;6.27;77.81;98705.31;3085374;28;20310;-63
2021/12/10 03:47:41;;;;;;;98.43;38.38;;;;;;;6.27;78.07;98705.31;3085150;28;20432;-63
2021/12/10 03:49:15;;;;;;;94.90;35.47;;;;;;;6.27;77.88;98689.81;3086621;28;20051;-61
2021/12/10 03:50:48;;;;;;;90.57;36.72;;;;;;;6.27;78.02;98682.06;3085790;28;20062;-61
2021/12/10 03:52:20;;;;;;;94.18;37.33;;;;;;;6.23;78.08;98667.59;3089754;28;20046;-62
2021/12/10 03:53:52;;;;;;;93.05;36.90;;;;;;;6.25;78.23;98686.47;3082366;28;20532;-61
2021/12/10 03:55:26;;;;;;;102.97;37.10;;;;;;;6.06;77.92;98647.69;3085454;28;20050;-61
2021/12/10 03:56:58;;;;;;;93.00;36.70;;;;;;;6.29;78.09;98680.25;3086381;28;20050;-61
2021/12/10 03:58:29;;;;;;;88.35;35.65;;;;;;;6.27;78.24;98653.63;3084805;28;20125;-62
2021/12/10 04:00:01;;;;;;;95.65;36.17;;;;;;;6.29;78.20;98659.56;3086221;28;20516;-63
2021/12/10 04:01:36;;;;;;;95.65;36.63;;;;;;;6.33;77.97;98674.88;3085443;28;20440;-63
2021/12/10 04:03:07;;;;;;;94.28;37.03;;;;;;;6.33;78.11;98674.00;3086570;28;20055;-63
2021/12/10 04:04:43;;;;;;;101.00;37.17;;;;;;;5.85;78.00;98559.00;3087632;28;20047;-62
2021/12/10 04:06:15;;;;;;;93.30;37.33;;;;;;;6.35;78.15;98616.16;3084103;28;20078;-62
2021/12/10 04:07:47;;;;;;;94.97;38.15;;;;;;;6.28;78.37;98608.78;3087808;28;20102;-62
2021/12/10 04:09:19;;;;;;;96.15;38.38;;;;;;;6.33;78.19;98622.31;3086699;28;20061;-62
2021/12/10 04:10:54;;;;;;;119.60;44.25;;;;;;;6.34;78.30;98629.16;3085834;28;20137;-62
2021/12/10 04:12:26;;;;;;;95.32;37.38;;;;;;;6.31;78.29;98611.22;3085867;28;20046;-64
2021/12/10 04:13:58;;;;;;;97.13;37.70;;;;;;;6.25;78.62;98614.09;3085208;28;20054;-62
2021/12/10 04:15:30;;;;;;;99.32;39.42;;;;;;;6.23;78.74;98614.16;3086149;28;20133;-62
2021/12/10 04:17:02;;;;;;;94.40;36.75;;;;;;;6.25;78.60;98629.59;3084579;28;20098;-62
2021/12/10 04:18:36;;;;;;;106.10;39.60;;;;;;;6.27;78.67;98627.75;3086861;28;20503;-62
2021/12/10 04:20:09;;;;;;;111.32;39.30;;;;;;;6.21;78.87;98615.13;3086809;28;20115;-62
2021/12/10 04:21:43;;;;;;;103.38;40.15;;;;;;;6.18;79.13;98636.78;3084944;28;20047;-61
2021/12/10 04:23:19;;;;;;;104.72;41.95;;;;;;;6.21;79.09;98639.25;3093355;28;20050;-61
2021/12/10 04:24:51;;;;;;;102.88;41.55;;;;;;;6.21;79.00;98647.00;3085116;28;20441;-62
2021/12/10 04:26:27;;;;;;;99.73;39.60;;;;;;;6.23;79.02;98649.50;3087095;28;20046;-61
2021/12/10 04:28:03;;;;;;;96.88;38.95;;;;;;;6.24;78.82;98635.66;3086604;28;20321;-61
2021/12/10 04:29:34;;;;;;;98.85;39.25;;;;;;;6.23;79.03;98637.41;3086353;28;20637;-61
2021/12/10 04:31:06;;;;;;;99.03;39.50;;;;;;;6.23;78.87;98652.09;3087394;28;20043;-61
2021/12/10 04:32:40;;;;;;;104.68;40.85;;;;;;;6.25;78.67;98645.13;3082901;28;20047;-62
2021/12/10 04:34:11;;;;;;;109.00;42.05;;;;;;;6.24;78.86;98651.16;3086426;28;20073;-61
2021/12/10 04:35:45;;;;;;;110.50;41.10;;;;;;;6.26;78.86;98659.69;3085095;28;20586;-62
2021/12/10 04:37:17;;;;;;;99.65;39.85;;;;;;;6.25;78.91;98665.78;3087517;28;20123;-62
2021/12/10 04:38:49;;;;;;;105.85;40.35;;;;;;;6.27;79.01;98672.56;3087682;28;20051;-62
2021/12/10 04:40:22;;;;;;;111.15;40.40;;;;;;;6.25;78.89;98655.44;3086058;28;20054;-61
2021/12/10 04:41:55;;;;;;;108.47;40.65;;;;;;;6.25;79.16;98686.47;3085871;28;20077;-61
2021/12/10 04:43:26;;;;;;;113.60;41.83;;;;;;;6.23;79.11;98685.69;3084508;28;20449;-61
2021/12/10 04:45:00;;;;;;;100.45;39.83;;;;;;;6.25;79.18;98701.97;3086637;28;20062;-62
2021/12/10 04:46:32;;;;;;;101.72;39.45;;;;;;;6.24;79.47;98701.16;3083566;28;20483;-61
2021/12/10 04:48:04;;;;;;;109.28;40.28;;;;;;;6.28;79.36;98719.94;3086378;28;20058;-61
2021/12/10 04:49:37;;;;;;;102.85;38.60;;;;;;;6.27;79.51;98702.72;3087046;28;20050;-61
2021/12/10 04:51:08;;;;;;;98.15;37.22;;;;;;;6.27;79.56;98695.84;3084370;28;20069;-61
2021/12/10 04:52:41;;;;;;;104.03;39.85;;;;;;;6.32;79.60;98687.84;3085067;28;20110;-61
2021/12/10 04:54:14;;;;;;;86.45;37.80;;;;;;;6.04;79.35;98641.75;3082693;28;20106;-61
2021/12/10 04:55:47;;;;;;;97.32;39.22;;;;;;;6.33;79.33;98705.91;3080115;28;20047;-61
2021/12/10 04:57:21;;;;;;;102.00;43.33;;;;;;;6.33;79.43;98720.56;3082840;28;20057;-61
2021/12/10 04:58:53;;;;;;;80.70;35.63;;;;;;;6.31;79.41;98699.94;3080995;28;20047;-61
2021/12/10 05:00:28;;;;;;;90.95;40.67;;;;;;;6.31;79.56;98676.69;3084116;28;20055;-60
2021/12/10 05:02:02;;;;;;;88.07;36.50;;;;;;;6.28;79.66;98694.09;3081024;28;20062;-60
2021/12/10 05:03:33;;;;;;;84.53;37.65;;;;;;;6.30;79.68;98700.00;3084613;28;20121;-60
2021/12/10 05:05:08;;;;;;;83.32;34.53;;;;;;;6.32;79.34;98711.13;3083551;28;20113;-60
2021/12/10 05:06:40;;;;;;;76.20;34.58;;;;;;;6.32;79.45;98705.97;3084900;28;20161;-62
2021/12/10 05:08:14;;;;;;;73.43;34.38;;;;;;;6.34;79.52;98691.22;3085451;28;20054;-62
2021/12/10 05:09:45;;;;;;;;;;;;;;;6.09;79.72;98696.66;3083525;28;20084;-62
2021/12/10 05:11:18;;;;;;;72.63;32.65;;;;;;;5.86;80.18;98648.56;3085404;28;19925;-62
2021/12/10 05:12:51;;;;;;;69.60;32.08;;;;;;;6.30;79.73;98712.94;3083164;28;20176;-62
2021/12/10 05:14:24;;;;;;;79.78;34.85;;;;;;;6.34;79.72;98728.25;3084556;28;20055;-62
2021/12/10 05:15:58;;;;;;;75.50;33.50;;;;;;;6.05;79.46;98679.59;3083743;28;20520;-62
2021/12/10 05:17:32;;;;;;;72.65;33.72;;;;;;;6.43;79.41;98734.75;3082448;28;20051;-62
2021/12/10 05:19:05;;;;;;;77.13;34.17;;;;;;;6.46;79.36;98713.94;3084456;28;20102;-62
2021/12/10 05:20:41;;;;;;;84.60;34.72;;;;;;;6.48;79.34;98730.22;3083327;28;20043;-61
2021/12/10 05:22:13;;;;;;;85.25;34.53;;;;;;;6.48;79.56;98730.22;3085107;28;20051;-62
2021/12/10 05:23:45;;;;;;;81.17;34.57;;;;;;;6.50;79.74;98710.28;3082960;28;20050;-62
2021/12/10 05:25:19;;;;;;;81.00;33.20;;;;;;;6.56;79.80;98724.69;3083489;28;20369;-62
2021/12/10 05:26:51;;;;;;;93.47;35.22;;;;;;;6.58;79.65;98731.47;3085306;28;20062;-63
2021/12/10 05:28:25;;;;;;;77.00;33.15;;;;;;;6.34;79.85;98717.09;3081609;28;20051;-62
2021/12/10 05:29:56;;;;;;;92.32;34.35;;;;;;;6.62;79.99;98732.16;3084290;28;20061;-62
2021/12/10 05:31:29;;;;;;;75.97;32.22;;;;;;;6.64;80.01;98745.03;3083046;28;20110;-61
2021/12/10 05:33:03;;;;;;;84.20;33.03;;;;;;;6.68;80.06;98741.41;3084214;28;20133;-61
2021/12/10 05:34:39;;;;;;;77.90;32.47;;;;;;;6.69;80.09;98743.09;3082681;28;20524;-61
2021/12/10 05:36:11;;;;;;;83.07;32.88;;;;;;;6.42;80.15;98707.22;3081756;28;20055;-62
2021/12/10 05:37:42;;;;;;;94.13;34.45;;;;;;;6.48;80.26;98686.25;3086165;28;20050;-61
2021/12/10 05:39:17;;;;;;;73.38;31.55;;;;;;;6.81;80.44;98737.34;3082352;28;20051;-61
2021/12/10 05:40:52;;;;;;;78.07;31.73;;;;;;;6.81;80.40;98748.53;3084125;28;20057;-62
2021/12/10 05:42:24;;;;;;;81.85;31.52;;;;;;;6.83;80.59;98761.38;3080977;28;20066;-62
2021/12/10 05:43:58;;;;;;;90.20;31.73;;;;;;;6.87;80.63;98752.59;3081773;28;20054;-61
2021/12/10 05:45:31;;;;;;;77.90;31.15;;;;;;;6.83;81.25;98735.50;3083657;28;20062;-62
2021/12/10 05:47:04;;;;;;;90.43;31.38;;;;;;;6.79;81.55;98732.22;3080185;28;20604;-62
2021/12/10 05:48:36;;;;;;;80.65;31.65;;;;;;;6.83;81.47;98740.69;3083677;28;20054;-62
2021/12/10 05:50:11;;;;;;;77.88;30.88;;;;;;;6.88;81.70;98743.06;3082902;28;20051;-61
2021/12/10 05:51:43;;;;;;;83.00;30.52;;;;;;;6.90;81.81;98744.66;3083074;28;20051;-62
2021/12/10 05:53:14;;;;;;;81.82;31.52;;;;;;;6.58;81.46;98684.06;3082922;28;20451;-62
2021/12/10 05:54:46;;;;;;;87.93;33.78;;;;;;;6.98;81.74;98755.50;3081964;28;20038;-62
2021/12/10 05:56:19;;;;;;;81.32;31.77;;;;;;;7.00;81.57;98753.66;3083580;28;20059;-62
2021/12/10 05:57:50;;;;;;;92.97;32.25;;;;;;;7.01;81.74;98746.72;3081464;28;20043;-62
2021/12/10 05:59:23;;;;;;;86.50;31.60;;;;;;;7.04;81.69;98751.78;3084014;28;20055;-61
2021/12/10 06:00:59;;;;;;;;;;;;;;;6.79;81.90;98752.94;3084223;28;20162;-65
2021/12/10 06:02:30;;;;;;;75.38;29.35;;;;;;;6.89;82.50;98760.25;3080813;28;19922;-64
2021/12/10 06:04:03;;;;;;;79.80;32.10;;;;;;;6.98;82.11;98758.09;3083264;28;20444;-66
2021/12/10 06:05:36;;;;;;;80.57;31.70;;;;;;;7.05;82.07;98761.22;3080434;28;20599;-66
2021/12/10 06:07:08;;;;;;;86.53;33.55;;;;;;;7.07;82.06;98775.78;3083558;28;20504;-64
2021/12/10 06:08:40;;;;;;;68.93;30.23;;;;;;;7.10;82.27;98779.13;3082076;28;20560;-65
2021/12/10 06:10:14;;;;;;;80.78;31.60;;;;;;;7.14;82.19;98776.31;3082750;28;20054;-65
2021/12/10 06:11:46;;;;;;;70.07;28.80;;;;;;;7.15;82.22;98777.16;3084551;28;20046;-65
2021/12/10 06:13:18;;;;;;;81.05;30.83;;;;;;;7.16;82.37;98768.47;3083167;28;20083;-64
2021/12/10 06:14:52;;;;;;;68.03;28.75;;;;;;;7.19;82.24;98774.34;3083907;28;20054;-61
2021/12/10 06:16:24;;;;;;;73.10;30.58;;;;;;;7.17;82.28;98777.94;3082782;28;20058;-62
2021/12/10 06:17:56;;;;;;;70.88;29.52;;;;;;;7.18;82.44;98777.00;3083687;28;20058;-61
2021/12/10 06:19:28;;;;;;;71.97;29.88;;;;;;;7.21;82.32;98756.97;3083399;28;20058;-61
2021/12/10 06:21:01;;;;;;;68.95;29.67;;;;;;;7.25;82.33;98742.16;3082195;28;20504;-61
2021/12/10 06:22:33;;;;;;;75.20;28.95;;;;;;;7.26;82.37;98741.22;3083954;28;20059;-62
2021/12/10 06:24:06;;;;;;;70.57;28.80;;;;;;;7.27;82.51;98741.16;3082525;28;20058;-62
2021/12/10 06:25:39;;;;;;;67.70;28.80;;;;;;;7.28;82.43;98752.38;3083961;28;20055;-61
2021/12/10 06:27:11;;;;;;;75.70;31.45;;;;;;;7.28;82.73;98748.03;3084436;28;20062;-62
2021/12/10 06:28:44;;;;;;;82.57;31.73;;;;;;;7.34;82.59;98761.59;3081166;28;20049;-61
2021/12/10 06:30:19;;;;;;;;;;;;;;;7.09;82.63;98767.09;3083607;28;20074;-62
2021/12/10 06:31:51;;;;;;;67.32;27.17;;;;;;;7.18;83.14;98757.13;3079670;28;19926;-63
2021/12/10 06:33:27;;;;;;;71.80;30.20;;;;;;;6.82;82.76;98676.91;3083356;28;20476;-62
2021/12/10 06:34:59;;;;;;;73.93;32.15;;;;;;;7.37;82.73;98766.63;3081211;28;20097;-61
2021/12/10 06:36:31;;;;;;;86.78;36.03;;;;;;;7.40;82.32;98754.34;3083156;28;20451;-61
2021/12/10 06:38:04;;;;;;;79.30;34.47;;;;;;;7.45;82.38;98742.03;3089098;28;20082;-61
2021/12/10 06:39:36;;;;;;;78.38;34.45;;;;;;;7.37;82.75;98726.00;3082592;28;20047;-61
2021/12/10 06:41:08;;;;;;;81.93;34.13;;;;;;;7.41;82.51;98722.34;3082953;28;20535;-61
2021/12/10 06:42:40;;;;;;;76.00;32.58;;;;;;;7.41;82.69;98719.75;3081576;28;20070;-60
2021/12/10 06:44:12;;;;;;;75.20;30.98;;;;;;;7.45;82.35;98720.44;3081483;28;20051;-59
2021/12/10 06:45:47;;;;;;;78.30;33.25;;;;;;;7.44;82.96;98713.59;3082946;28;20062;-60
2021/12/10 06:47:18;;;;;;;75.38;31.25;;;;;;;7.41;82.96;98712.00;3080356;28;20058;-59
2021/12/10 06:48:50;;;;;;;72.60;30.48;;;;;;;7.50;82.73;98734.84;3083292;28;20066;-59
2021/12/10 06:50:25;;;;;;;73.63;30.42;;;;;;;7.56;82.54;98738.06;3081440;28;20047;-61
2021/12/10 06:51:57;;;;;;;71.00;29.92;;;;;;;7.57;82.54;98729.34;3083071;28;20501;-61
2021/12/10 06:53:30;;;;;;;72.80;28.90;;;;;;;7.54;82.69;98732.94;3084069;28;20050;-61
2021/12/10 06:55:02;;;;;;;74.80;29.85;;;;;;;7.57;82.98;98731.94;3081053;28;20110;-60
2021/12/10 06:56:36;;;;;;;78.47;33.28;;;;;;;7.63;82.64;98723.88;3083335;28;20059;-60
2021/12/10 06:58:09;;;;;;;74.10;33.63;;;;;;;7.66;82.97;98724.56;3081347;28;20600;-60
2021/12/10 06:59:41;;;;;;;75.05;32.47;;;;;;;7.65;82.52;98707.31;3081204;28;20050;-61
2021/12/10 07:01:18;;;;;;;70.53;31.58;;;;;;;7.74;82.96;98708.63;3081963;28;20062;-60
2021/12/10 07:02:50;;;;;;;76.00;32.33;;;;;;;7.73;83.01;98712.13;3080207;28;20047;-60
2021/12/10 07:04:22;;;;;;;81.82;33.78;;;;;;;7.78;82.81;98725.69;3083543;28;20051;-59
2021/12/10 07:05:56;;;;;;;80.13;34.13;;;;;;;7.84;82.75;98727.97;3081082;28;20596;-61
2021/12/10 07:07:29;;;;;;;72.15;32.45;;;;;;;7.91;82.96;98720.72;3082176;28;20465;-59
2021/12/10 07:09:02;;;;;;;81.32;33.15;;;;;;;7.93;82.77;98708.53;3081993;28;20078;-61
2021/12/10 07:10:34;;;;;;;79.20;34.70;;;;;;;7.98;82.75;98706.50;3083394;28;20046;-61
2021/12/10 07:12:07;;;;;;;84.10;33.92;;;;;;;8.04;82.68;98702.75;3083518;28;20051;-61
2021/12/10 07:13:41;;;;;;;78.68;35.95;;;;;;;8.08;82.68;98709.47;3080511;28;20058;-61
2021/12/10 07:15:16;;;;;;;80.40;33.63;;;;;;;8.16;83.04;98721.13;3083573;28;20082;-60
2021/12/10 07:16:50;;;;;;;82.47;33.05;;;;;;;8.25;82.94;98714.59;3079990;28;20058;-61
2021/12/10 07:18:23;;;;;;;72.55;31.10;;;;;;;8.35;82.90;98714.97;3082882;28;20421;-61
2021/12/10 07:19:55;;;;;;;78.28;33.97;;;;;;;8.41;82.97;98712.91;3081922;28;20059;-60
2021/12/10 07:21:29;;;;;;;80.80;33.80;;;;;;;8.51;82.86;98709.81;3082451;28;20055;-60